TimeCST,TemperatureF,Dew PointF,Humidity,Sea Level PressureIn,VisibilityMPH,Wind Direction,Wind SpeedMPH,Gust SpeedMPH,PrecipitationIn,Events,Conditions,WindDirDegrees,DateUTC
6:00 AM,69.8,66.2,88,29.81,-9999.0,NNW,5.8,-,N/A,,Clear,340,2013-02-24 12:00:00
7:00 AM,75.2,68.0,78,29.83,-9999.0,Calm,Calm,-,N/A,,Clear,0,2013-02-24 13:00:00
8:00 AM,80.6,68.0,65,29.84,-9999.0,SSW,5.8,-,N/A,,Clear,210,2013-02-24 14:00:00
9:00 AM,86.0,68.0,55,29.85,-9999.0,North,4.6,-,N/A,,Clear,10,2013-02-24 15:00:00
10:00 AM,89.6,64.4,43,29.85,-9999.0,East,11.5,-,N/A,,Clear,90,2013-02-24 16:00:00
11:00 AM,93.2,62.6,36,29.81,-9999.0,ESE,13.8,-,N/A,,Clear,110,2013-02-24 17:00:00
12:00 PM,93.2,60.8,34,29.78,6.2,East,13.8,-,N/A,,Partly Cloudy,100,2013-02-24 18:00:00
1:00 PM,95.0,60.8,32,29.75,6.2,ENE,16.1,-,N/A,,Partly Cloudy,70,2013-02-24 19:00:00
2:00 PM,95.0,60.8,32,29.72,6.2,East,11.5,-,N/A,,Partly Cloudy,80,2013-02-24 20:00:00
3:00 PM,96,61,22,29.71,12,ENE,12.7,,,,Scattered Clouds,60,2013-02-24 21:00:00
3:00 PM,95.0,66.2,39,29.70,6.2,ENE,12.7,-,N/A,,Partly Cloudy,60,2013-02-24 21:00:00
4:00 PM,93.2,62.6,36,29.70,6.2,ENE,13.8,-,N/A,,Partly Cloudy,70,2013-02-24 22:00:00
5:00 PM,89.6,62.6,40,29.70,6.2,East,13.8,-,N/A,,Partly Cloudy,80,2013-02-24 23:00:00
6:00 PM,88,63,33,29.73,12,ENE,10.4,,,,Scattered Clouds,70,2013-02-25 00:00:00
6:00 PM,87.8,62.6,43,29.72,6.2,ENE,10.4,-,N/A,,Partly Cloudy,70,2013-02-25 00:00:00
7:00 PM,84.2,62.6,48,29.75,-9999.0,ENE,6.9,-,N/A,,Clear,60,2013-02-25 01:00:00
8:00 PM,82.4,64.4,54,29.77,-9999.0,ESE,4.6,-,N/A,,Clear,120,2013-02-25 02:00:00
9:00 PM,82.4,64.4,54,29.79,-9999.0,East,8.1,-,N/A,,Clear,100,2013-02-25 03:00:00
10:00 PM,80.6,64.4,58,29.81,-9999.0,East,3.5,-,N/A,,Clear,90,2013-02-25 04:00:00
11:00 PM,77.0,64.4,65,29.82,-9999.0,NE,5.8,-,N/A,,Clear,40,2013-02-25 05:00:00